createdAt,value
2022-08-25T00:00:09.349Z,2.36
2022-08-25T00:01:41.093Z,2.22
2022-08-25T00:03:12.593Z,2.09
2022-08-25T00:04:44.728Z,2.37
2022-08-25T00:06:25.321Z,2.10
2022-08-25T00:07:56.696Z,2.20
2022-08-25T00:09:28.113Z,2.19
2022-08-25T00:11:03.530Z,2.16
2022-08-25T00:12:35.219Z,2.20
2022-08-25T00:14:06.670Z,2.27
2022-08-25T00:15:38.226Z,2.47
2022-08-25T00:17:09.795Z,2.07
2022-08-25T00:18:41.326Z,2.00
2022-08-25T00:20:12.701Z,2.30
2022-08-25T00:21:44.107Z,2.56
2022-08-25T00:23:15.508Z,2.24
2022-08-25T00:24:47.065Z,2.32
2022-08-25T00:26:18.469Z,2.15
2022-08-25T00:27:49.863Z,2.24
2022-08-25T00:29:21.410Z,2.27
2022-08-25T00:30:52.923Z,2.10
2022-08-25T00:32:24.493Z,2.02
2022-08-25T00:33:55.867Z,2.12
2022-08-25T00:35:27.269Z,1.88
2022-08-25T00:36:58.745Z,1.86
2022-08-25T00:38:30.526Z,2.14
2022-08-25T00:40:01.999Z,2.05
2022-08-25T00:41:33.480Z,2.03
2022-08-25T00:43:04.967Z,2.07
2022-08-25T00:44:36.413Z,2.10
2022-08-25T00:46:07.893Z,1.98
2022-08-25T00:47:39.497Z,1.95
2022-08-25T00:49:20.966Z,2.03
2022-08-25T00:50:56.630Z,2.03
2022-08-25T00:52:28.105Z,2.31
2022-08-25T00:53:59.505Z,2.20
2022-08-25T00:55:32.225Z,2.26
2022-08-25T00:57:03.591Z,2.21
2022-08-25T00:58:35.018Z,2.38
2022-08-25T01:00:06.600Z,2.05
2022-08-25T01:01:38.050Z,2.22
2022-08-25T01:03:09.556Z,2.16
2022-08-25T01:04:48.654Z,2.18
2022-08-25T01:06:20.839Z,2.11
2022-08-25T01:07:52.393Z,2.08
2022-08-25T01:09:29.018Z,2.14
2022-08-25T01:11:00.577Z,2.11
2022-08-25T01:12:32.066Z,2.18
2022-08-25T01:14:03.452Z,2.02
2022-08-25T01:15:34.907Z,2.01
2022-08-25T01:17:09.467Z,2.05
2022-08-25T01:18:40.980Z,2.13
2022-08-25T01:20:12.485Z,2.10
2022-08-25T01:21:43.975Z,2.18
2022-08-25T01:23:15.370Z,1.98
2022-08-25T01:24:46.793Z,2.14
2022-08-25T01:26:18.189Z,2.23
2022-08-25T01:27:51.189Z,2.01
2022-08-25T01:29:22.701Z,2.03
2022-08-25T01:30:54.308Z,2.10
2022-08-25T01:32:27.578Z,1.99
2022-08-25T01:33:59.322Z,2.10
2022-08-25T01:35:30.806Z,2.11
2022-08-25T01:37:02.319Z,1.96
2022-08-25T01:38:33.867Z,2.00
2022-08-25T01:40:05.447Z,2.21
2022-08-25T01:41:37.102Z,2.50
2022-08-25T01:43:08.478Z,2.27
2022-08-25T01:44:39.913Z,2.10
2022-08-25T01:46:11.542Z,2.21
2022-08-25T01:47:43.172Z,2.15
2022-08-25T01:49:15.785Z,2.36
2022-08-25T01:50:47.288Z,2.27
2022-08-25T01:52:18.752Z,2.08
2022-08-25T01:53:52.074Z,2.07
2022-08-25T01:55:23.470Z,2.24
2022-08-25T01:56:55.132Z,2.25
2022-08-25T01:58:26.826Z,2.38
2022-08-25T01:59:58.255Z,2.26
2022-08-25T02:01:29.684Z,2.46
2022-08-25T02:03:01.531Z,2.32
2022-08-25T02:04:34.252Z,2.19
2022-08-25T02:06:05.979Z,2.13
2022-08-25T02:07:37.489Z,2.42
2022-08-25T02:09:09.594Z,2.20
2022-08-25T02:10:42.353Z,2.07
2022-08-25T02:12:13.871Z,2.33
2022-08-25T02:13:45.344Z,2.24
2022-08-25T02:15:16.746Z,2.49
2022-08-25T02:16:48.279Z,2.42
2022-08-25T02:18:19.814Z,2.49
2022-08-25T02:19:51.279Z,2.37
2022-08-25T02:21:22.700Z,2.36
2022-08-25T02:22:56.974Z,2.20
2022-08-25T02:24:29.067Z,2.46
2022-08-25T02:26:00.445Z,2.25
2022-08-25T02:27:31.825Z,2.40
2022-08-25T02:29:03.281Z,2.30
2022-08-25T02:30:34.743Z,2.47
2022-08-25T02:32:06.126Z,2.43
2022-08-25T02:33:37.549Z,2.57
2022-08-25T02:35:08.971Z,2.55
2022-08-25T02:36:40.370Z,2.75
2022-08-25T02:38:12.018Z,2.56
2022-08-25T02:39:44.498Z,2.46
2022-08-25T02:41:16.010Z,2.51
2022-08-25T02:42:47.416Z,2.51
2022-08-25T02:44:18.893Z,2.49
2022-08-25T02:45:50.511Z,2.26
2022-08-25T02:47:24.590Z,2.55
2022-08-25T02:48:58.548Z,2.33
2022-08-25T02:50:29.922Z,2.26
2022-08-25T02:52:01.408Z,2.23
2022-08-25T02:53:33.353Z,2.53
2022-08-25T02:55:04.763Z,2.53
2022-08-25T02:56:36.178Z,2.44
2022-08-25T02:58:07.574Z,2.50
2022-08-25T02:59:39.250Z,2.38
2022-08-25T03:01:10.908Z,2.52
2022-08-25T03:02:42.514Z,2.38
2022-08-25T03:04:13.936Z,2.15
2022-08-25T03:05:45.452Z,2.54
2022-08-25T03:07:16.884Z,2.54
2022-08-25T03:08:49.488Z,2.51
2022-08-25T03:10:21.038Z,2.46
2022-08-25T03:11:52.448Z,2.68
2022-08-25T03:13:23.917Z,2.40
2022-08-25T03:14:55.439Z,2.54
2022-08-25T03:16:27.930Z,2.54
2022-08-25T03:18:00.226Z,2.38
2022-08-25T03:19:32.780Z,2.37
2022-08-25T03:21:04.139Z,2.59
2022-08-25T03:22:35.636Z,2.40
2022-08-25T03:24:07.094Z,2.41
2022-08-25T03:25:38.607Z,2.35
2022-08-25T03:27:10.053Z,2.57
2022-08-25T03:28:48.457Z,2.50
2022-08-25T03:30:20.006Z,2.41
2022-08-25T03:31:51.428Z,2.50
2022-08-25T03:33:23.061Z,2.59
2022-08-25T03:34:54.581Z,2.40
2022-08-25T03:36:26.108Z,2.66
2022-08-25T03:37:57.759Z,2.40
2022-08-25T03:39:29.117Z,2.58
2022-08-25T03:41:05.778Z,2.88
2022-08-25T03:42:37.558Z,2.75
2022-08-25T03:44:09.268Z,2.83
2022-08-25T03:45:40.814Z,2.76
2022-08-25T03:47:12.360Z,2.61
2022-08-25T03:48:44.148Z,2.75
2022-08-25T03:50:15.511Z,2.80
2022-08-25T03:51:47.051Z,2.88
2022-08-25T03:53:18.579Z,2.77
2022-08-25T03:54:50.026Z,2.82
2022-08-25T03:56:21.699Z,2.80
2022-08-25T03:57:53.281Z,3.05
2022-08-25T03:59:24.941Z,2.83
2022-08-25T04:00:56.378Z,2.82
2022-08-25T04:02:28.084Z,3.18
2022-08-25T04:03:59.615Z,3.13
2022-08-25T04:05:31.087Z,3.11
2022-08-25T04:07:04.607Z,3.25
2022-08-25T04:08:39.353Z,3.13
2022-08-25T04:10:10.772Z,3.19
2022-08-25T04:11:42.736Z,2.98
2022-08-25T04:13:15.360Z,3.17
2022-08-25T04:14:46.982Z,3.10
2022-08-25T04:16:18.452Z,3.22
2022-08-25T04:17:50.541Z,2.90
2022-08-25T04:19:23.349Z,3.25
2022-08-25T04:20:54.866Z,3.19
2022-08-25T04:22:31.398Z,3.21
2022-08-25T04:24:05.293Z,3.26
2022-08-25T04:25:36.746Z,3.02
2022-08-25T04:27:31.274Z,3.15
2022-08-25T04:29:02.656Z,2.97
2022-08-25T04:30:34.513Z,3.10
2022-08-25T04:32:06.407Z,3.37
2022-08-25T04:33:38.122Z,3.32
2022-08-25T04:35:20.141Z,3.26
2022-08-25T04:36:56.671Z,3.04
2022-08-25T04:38:28.135Z,3.07
2022-08-25T04:39:59.690Z,3.21
2022-08-25T04:41:51.984Z,3.06
2022-08-25T04:43:33.571Z,3.15
2022-08-25T04:45:05.126Z,2.97
2022-08-25T04:46:36.804Z,3.07
2022-08-25T04:48:08.567Z,3.13
2022-08-25T04:49:45.612Z,3.15
2022-08-25T04:51:16.990Z,2.96
2022-08-25T04:52:48.363Z,3.06
2022-08-25T04:54:20.064Z,3.15
2022-08-25T04:56:03.813Z,3.05
2022-08-25T04:58:31.928Z,3.32
2022-08-25T05:00:14.771Z,2.99
2022-08-25T05:02:03.736Z,3.11
2022-08-25T05:03:45.301Z,2.91
2022-08-25T05:05:26.724Z,3.30
2022-08-25T05:07:03.232Z,3.08
2022-08-25T05:08:45.827Z,3.32
2022-08-25T05:10:36.577Z,3.22
2022-08-25T05:12:07.945Z,3.23
2022-08-25T05:13:51.522Z,3.02
2022-08-25T05:15:23.252Z,2.97
2022-08-25T05:16:54.723Z,3.01
2022-08-25T05:18:31.582Z,2.92
2022-08-25T05:20:03.139Z,3.21
2022-08-25T05:21:34.711Z,3.10
2022-08-25T05:23:21.242Z,3.50
2022-08-25T05:25:01.813Z,3.23
2022-08-25T05:26:33.695Z,3.33
2022-08-25T05:28:05.565Z,3.17
2022-08-25T05:29:37.166Z,3.26
2022-08-25T05:31:08.728Z,3.11
2022-08-25T05:32:40.525Z,3.49
2022-08-25T05:34:12.207Z,3.51
2022-08-25T05:35:43.789Z,3.46
2022-08-25T05:37:25.375Z,3.42
2022-08-25T05:38:57.183Z,3.50
2022-08-25T05:40:34.150Z,3.45
2022-08-25T05:42:07.758Z,3.47
2022-08-25T05:43:53.594Z,3.45
2022-08-25T05:45:25.626Z,3.36
2022-08-25T05:47:17.203Z,3.59
2022-08-25T05:49:03.694Z,3.33
2022-08-25T05:50:40.257Z,3.38
2022-08-25T05:52:22.290Z,3.57
2022-08-25T05:53:54.049Z,3.28
2022-08-25T05:55:35.729Z,3.11
2022-08-25T05:57:07.333Z,3.36
2022-08-25T05:58:38.782Z,3.29
2022-08-25T06:00:10.521Z,3.43
2022-08-25T06:01:49.597Z,3.32
2022-08-25T06:03:21.257Z,3.16
2022-08-25T06:05:02.795Z,3.32
2022-08-25T06:06:44.657Z,3.36
2022-08-25T06:08:16.179Z,3.28
2022-08-25T06:09:47.735Z,3.33
2022-08-25T06:11:25.940Z,3.42
2022-08-25T06:12:57.482Z,3.32
2022-08-25T06:14:30.614Z,3.37
2022-08-25T06:16:02.383Z,3.53
2022-08-25T06:17:48.500Z,3.42
2022-08-25T06:19:25.120Z,3.50
2022-08-25T06:21:02.018Z,3.70
2022-08-25T06:22:33.652Z,3.55
2022-08-25T06:24:14.822Z,3.55
2022-08-25T06:25:47.163Z,3.51
2022-08-25T06:27:23.659Z,3.79
2022-08-25T06:28:55.246Z,3.38
2022-08-25T06:30:28.949Z,3.57
2022-08-25T06:32:00.635Z,3.56
2022-08-25T06:33:37.215Z,3.83
2022-08-25T06:35:08.915Z,3.77
2022-08-25T06:36:40.659Z,3.83
2022-08-25T06:38:13.038Z,3.88
2022-08-25T06:39:44.744Z,3.54
2022-08-25T06:41:16.266Z,3.88
2022-08-25T06:42:47.978Z,3.81
2022-08-25T06:44:29.472Z,3.70
2022-08-25T06:46:06.052Z,3.87
2022-08-25T06:47:38.677Z,4.02
2022-08-25T06:49:20.125Z,3.92
2022-08-25T06:50:51.710Z,3.79
2022-08-25T06:52:29.454Z,4.04
2022-08-25T06:54:06.113Z,3.89
2022-08-25T06:55:37.775Z,3.95
2022-08-25T06:57:09.327Z,3.97
2022-08-25T06:58:51.020Z,4.36
2022-08-25T07:00:30.485Z,4.23
2022-08-25T07:02:08.103Z,3.91
2022-08-25T07:03:40.168Z,3.96
2022-08-25T07:05:17.129Z,4.06
2022-08-25T07:06:58.504Z,3.75
2022-08-25T07:08:45.498Z,4.16
2022-08-25T07:10:22.155Z,4.18
2022-08-25T07:11:53.728Z,3.85
2022-08-25T07:13:25.348Z,4.39
2022-08-25T07:15:17.207Z,4.19
2022-08-25T07:16:51.685Z,4.38
2022-08-25T07:18:23.197Z,4.15
2022-08-25T07:19:59.762Z,4.56
2022-08-25T07:21:33.388Z,4.02
2022-08-25T07:23:05.556Z,4.05
2022-08-25T07:24:37.199Z,4.17
2022-08-25T07:26:15.915Z,4.04
2022-08-25T07:27:58.209Z,4.11
2022-08-25T07:29:32.419Z,4.26
2022-08-25T07:31:04.846Z,4.04
2022-08-25T07:32:36.616Z,4.10
2022-08-25T07:34:08.148Z,3.88
2022-08-25T07:35:41.201Z,4.12
2022-08-25T07:37:32.210Z,4.12
2022-08-25T07:39:21.886Z,4.24
2022-08-25T07:40:53.694Z,3.91
2022-08-25T07:42:28.530Z,4.22
2022-08-25T07:44:00.303Z,4.41
2022-08-25T07:45:31.831Z,4.11
2022-08-25T07:47:03.471Z,4.16
2022-08-25T07:48:37.168Z,4.01
2022-08-25T07:50:13.756Z,3.95
2022-08-25T07:52:05.215Z,4.10
2022-08-25T07:53:37.773Z,4.31
2022-08-25T07:55:11.066Z,4.23
2022-08-25T07:56:44.022Z,4.23
2022-08-25T07:58:15.765Z,4.44
2022-08-25T07:59:52.457Z,4.27
2022-08-25T08:01:24.808Z,4.27
2022-08-25T08:02:56.478Z,4.32
2022-08-25T08:04:28.160Z,4.41
2022-08-25T08:06:25.937Z,4.45
2022-08-25T08:08:27.746Z,4.51
2022-08-25T08:10:27.982Z,4.40
2022-08-25T08:12:09.821Z,4.63
2022-08-25T08:13:41.625Z,4.51
2022-08-25T08:15:13.325Z,4.53
2022-08-25T08:16:44.791Z,4.74
2022-08-25T08:18:21.483Z,5.07
2022-08-25T08:20:04.626Z,4.84
2022-08-25T08:21:36.123Z,4.59
2022-08-25T08:23:07.765Z,4.38
2022-08-25T08:24:44.645Z,4.50
2022-08-25T08:26:55.359Z,4.55
2022-08-25T08:28:35.250Z,4.44
2022-08-25T08:30:06.815Z,4.44
2022-08-25T08:31:38.489Z,4.23
2022-08-25T08:33:12.012Z,4.77
2022-08-25T08:34:44.458Z,4.60
2022-08-25T08:36:26.187Z,4.41
2022-08-25T08:37:57.798Z,4.61
2022-08-25T08:39:34.341Z,4.51
2022-08-25T08:41:09.060Z,4.72
2022-08-25T08:42:57.708Z,4.92
2022-08-25T08:44:39.278Z,4.80
2022-08-25T08:46:21.005Z,4.62
2022-08-25T08:47:52.808Z,4.66
2022-08-25T08:49:34.568Z,4.66
2022-08-25T08:51:09.746Z,4.56
2022-08-25T08:52:41.718Z,4.67
2022-08-25T08:54:15.370Z,4.58
2022-08-25T08:55:52.486Z,4.54
2022-08-25T08:57:32.112Z,4.36
2022-08-25T08:59:06.249Z,4.84
2022-08-25T09:00:52.223Z,4.58
2022-08-25T09:02:38.635Z,4.73
2022-08-25T09:04:31.912Z,4.60
2022-08-25T09:06:24.897Z,4.22
2022-08-25T09:08:02.552Z,4.51
2022-08-25T09:09:35.743Z,4.28
2022-08-25T09:11:10.026Z,4.08
2022-08-25T09:12:48.127Z,4.09
2022-08-25T09:14:30.831Z,4.26
2022-08-25T09:16:02.408Z,4.07
2022-08-25T09:17:39.500Z,4.25
2022-08-25T09:19:26.107Z,4.17
2022-08-25T09:20:57.733Z,4.20
2022-08-25T09:22:34.847Z,4.08
2022-08-25T09:24:28.611Z,4.25
2022-08-25T09:26:05.242Z,3.99
2022-08-25T09:27:36.818Z,4.11
2022-08-25T09:29:16.775Z,3.94
2022-08-25T09:30:49.942Z,3.64
2022-08-25T09:32:26.733Z,4.03
2022-08-25T09:34:13.637Z,4.27
2022-08-25T09:36:08.961Z,4.13
2022-08-25T09:38:22.239Z,4.36
2022-08-25T09:40:03.799Z,4.56
2022-08-25T09:41:51.703Z,4.36
2022-08-25T09:43:42.617Z,4.48
2022-08-25T09:45:34.497Z,4.05
2022-08-25T09:47:17.080Z,3.94
2022-08-25T09:49:01.597Z,4.16
2022-08-25T09:50:48.891Z,3.85
2022-08-25T09:52:26.560Z,4.06
2022-08-25T09:53:59.310Z,4.25
2022-08-25T09:56:01.444Z,4.19
2022-08-25T09:57:41.250Z,4.00
2022-08-25T09:59:35.201Z,4.13
2022-08-25T10:01:17.493Z,4.30
2022-08-25T10:02:51.817Z,4.49
2022-08-25T10:04:26.347Z,4.26
2022-08-25T10:06:20.398Z,4.01
2022-08-25T10:08:02.858Z,3.91
2022-08-25T10:09:45.578Z,4.44
2022-08-25T10:11:39.254Z,4.35
2022-08-25T10:13:16.150Z,4.00
2022-08-25T10:15:15.070Z,4.46
2022-08-25T10:17:02.202Z,4.11
2022-08-25T10:18:46.142Z,3.95
2022-08-25T10:20:35.425Z,4.18
2022-08-25T10:24:26.790Z,3.59
2022-08-25T10:26:07.014Z,4.08
2022-08-25T10:27:38.834Z,3.65
2022-08-25T10:29:30.913Z,3.71
2022-08-25T10:31:04.338Z,4.12
2022-08-25T10:32:46.145Z,3.79
2022-08-25T10:34:44.430Z,3.76
2022-08-25T10:36:16.944Z,3.72
2022-08-25T10:38:07.036Z,3.89
2022-08-25T10:39:43.820Z,3.70
2022-08-25T10:41:40.779Z,3.54
2022-08-25T10:43:23.736Z,3.54
2022-08-25T10:45:01.702Z,3.68
2022-08-25T10:46:43.835Z,3.52
2022-08-25T10:48:39.752Z,3.83
2022-08-25T10:50:49.097Z,3.48
2022-08-25T10:52:20.893Z,3.57
2022-08-25T10:53:52.526Z,3.77
2022-08-25T10:55:34.389Z,3.97
2022-08-25T10:57:12.122Z,3.86
2022-08-25T10:58:45.101Z,3.70
2022-08-25T11:00:16.814Z,3.76
2022-08-25T11:02:02.486Z,3.84
2022-08-25T11:03:51.956Z,3.84
2022-08-25T11:05:25.075Z,3.71
2022-08-25T11:06:56.785Z,3.92
2022-08-25T11:08:28.724Z,3.95
2022-08-25T11:10:00.471Z,4.21
2022-08-25T11:11:57.339Z,3.68
2022-08-25T11:13:30.929Z,3.34
2022-08-25T11:15:03.138Z,3.36
2022-08-25T11:16:37.151Z,3.41
2022-08-25T11:18:14.667Z,3.24
2022-08-25T11:19:46.979Z,3.22
2022-08-25T11:21:18.711Z,3.40
2022-08-25T11:22:53.828Z,3.46
2022-08-25T11:24:25.513Z,3.42
2022-08-25T11:25:57.475Z,3.15
2022-08-25T11:27:31.372Z,3.29
2022-08-25T11:29:03.066Z,3.26
2022-08-25T11:30:44.719Z,3.26
2022-08-25T11:32:27.317Z,3.42
2022-08-25T11:33:59.153Z,3.31
2022-08-25T11:35:36.321Z,3.26
2022-08-25T11:37:11.274Z,3.55
2022-08-25T11:38:43.205Z,3.37
2022-08-25T11:40:24.970Z,3.60
2022-08-25T11:41:56.949Z,3.50
2022-08-25T11:43:28.526Z,3.30
2022-08-25T11:45:03.100Z,3.58
2022-08-25T11:46:35.786Z,3.39
2022-08-25T11:48:07.753Z,3.35
2022-08-25T11:49:39.563Z,3.15
2022-08-25T11:51:12.421Z,3.54
2022-08-25T11:52:54.314Z,3.42
2022-08-25T11:54:26.546Z,3.45
2022-08-25T11:56:03.691Z,3.12
2022-08-25T11:57:45.614Z,3.28
2022-08-25T11:59:17.681Z,3.14
2022-08-25T12:00:49.688Z,3.28
2022-08-25T12:02:21.846Z,3.24
2022-08-25T12:03:53.950Z,3.19
2022-08-25T12:05:25.825Z,3.36
2022-08-25T12:06:57.947Z,3.32
2022-08-25T12:08:30.159Z,3.30
2022-08-25T12:10:01.981Z,3.29
2022-08-25T12:11:38.936Z,3.30
2022-08-25T12:13:16.000Z,3.27
2022-08-25T12:14:53.828Z,3.20
2022-08-25T12:16:27.065Z,2.97
2022-08-25T12:17:58.932Z,3.06
2022-08-25T12:19:31.736Z,3.15
2022-08-25T12:21:03.389Z,3.14
2022-08-25T12:22:35.140Z,3.16
2022-08-25T12:24:06.893Z,3.06
2022-08-25T12:25:43.810Z,3.07
2022-08-25T12:27:15.761Z,3.01
2022-08-25T12:28:47.558Z,3.00
2022-08-25T12:30:21.018Z,3.17
2022-08-25T12:31:59.156Z,3.03
2022-08-25T12:33:36.375Z,3.06
2022-08-25T12:35:08.155Z,3.35
2022-08-25T12:36:45.550Z,3.04
2022-08-25T12:38:18.712Z,3.20
2022-08-25T12:39:50.763Z,3.04
2022-08-25T12:41:22.520Z,3.27
2022-08-25T12:42:56.062Z,2.94
2022-08-25T12:44:29.917Z,3.19
2022-08-25T12:46:17.204Z,3.03
2022-08-25T12:47:59.218Z,3.23
2022-08-25T12:49:31.469Z,3.18
2022-08-25T12:51:03.114Z,3.12
2022-08-25T12:52:34.982Z,3.08
2022-08-25T12:54:19.064Z,3.04
2022-08-25T12:55:54.140Z,3.17
2022-08-25T12:57:29.562Z,3.28
2022-08-25T12:59:02.081Z,3.04
2022-08-25T13:00:44.868Z,3.10
2022-08-25T13:02:18.510Z,3.40
2022-08-25T13:03:51.070Z,3.06
2022-08-25T13:05:22.844Z,2.99
2022-08-25T13:06:55.180Z,2.98
2022-08-25T13:08:27.089Z,3.07
2022-08-25T13:10:25.325Z,3.11
2022-08-25T13:11:57.504Z,2.93
2022-08-25T13:13:29.622Z,2.92
2022-08-25T13:15:03.090Z,2.89
2022-08-25T13:16:35.032Z,2.81
2022-08-25T13:18:07.132Z,2.81
2022-08-25T13:19:39.861Z,2.82
2022-08-25T13:21:11.674Z,2.89
2022-08-25T13:22:43.660Z,2.91
2022-08-25T13:24:15.423Z,3.14
2022-08-25T13:25:47.155Z,2.90
2022-08-25T13:27:22.714Z,2.82
2022-08-25T13:28:54.633Z,2.73
2022-08-25T13:30:26.586Z,2.93
2022-08-25T13:31:58.891Z,3.16
2022-08-25T13:33:32.668Z,2.98
2022-08-25T13:35:04.289Z,2.99
2022-08-25T13:36:37.180Z,2.78
2022-08-25T13:38:13.728Z,2.93
2022-08-25T13:39:56.381Z,2.71
2022-08-25T13:41:28.764Z,2.87
2022-08-25T13:43:02.794Z,2.62
2022-08-25T13:44:51.720Z,2.77
2022-08-25T13:46:50.243Z,2.86
2022-08-25T13:49:42.875Z,2.86
2022-08-25T13:52:37.435Z,2.85
2022-08-25T13:54:41.095Z,2.81
2022-08-25T13:58:06.777Z,2.74
2022-08-25T13:59:44.493Z,2.93
2022-08-25T14:01:46.337Z,2.74
2022-08-25T14:03:21.546Z,2.89
2022-08-25T14:05:01.638Z,2.94
2022-08-25T14:06:38.751Z,2.84
2022-08-25T14:08:23.498Z,2.83
2022-08-25T14:10:02.810Z,2.94
2022-08-25T14:11:36.939Z,2.89
2022-08-25T14:13:10.995Z,2.91
2022-08-25T14:14:42.709Z,3.05
2022-08-25T14:16:14.880Z,2.86
2022-08-25T14:17:49.233Z,2.98
2022-08-25T14:19:20.949Z,2.99
2022-08-25T14:20:52.605Z,3.14
2022-08-25T14:22:29.792Z,3.18
2022-08-25T14:24:01.623Z,3.12
2022-08-25T14:25:33.352Z,2.98
2022-08-25T14:27:07.054Z,3.04
2022-08-25T14:28:58.700Z,3.21
2022-08-25T14:30:30.357Z,3.19
2022-08-25T14:32:02.193Z,3.28
2022-08-25T14:33:44.638Z,2.96
2022-08-25T14:35:21.975Z,3.17
2022-08-25T14:36:53.941Z,3.09
2022-08-25T14:38:25.938Z,3.31
2022-08-25T14:39:57.677Z,3.53
2022-08-25T14:41:29.338Z,3.24
2022-08-25T14:43:00.951Z,3.42
2022-08-25T14:44:33.844Z,3.37
2022-08-25T14:46:06.906Z,3.19
2022-08-25T14:47:39.039Z,3.15
2022-08-25T14:49:10.766Z,3.24
2022-08-25T14:50:42.652Z,3.16
2022-08-25T14:52:14.948Z,3.28
2022-08-25T14:53:50.612Z,3.00
2022-08-25T14:55:31.392Z,3.71
2022-08-25T14:57:03.716Z,3.45
2022-08-25T14:58:48.440Z,3.25
2022-08-25T15:00:25.936Z,3.35
2022-08-25T15:01:57.903Z,2.98
2022-08-25T15:03:40.041Z,3.13
2022-08-25T15:05:11.701Z,3.57
2022-08-25T15:06:43.801Z,3.89
2022-08-25T15:08:15.428Z,3.41
2022-08-25T15:09:47.190Z,3.29
2022-08-25T15:11:19.094Z,3.41
2022-08-25T15:12:53.834Z,3.16
2022-08-25T15:14:28.602Z,3.31
2022-08-25T15:16:04.773Z,3.52
2022-08-25T15:17:36.623Z,3.48
2022-08-25T15:19:09.008Z,3.34
2022-08-25T15:20:40.771Z,3.34
2022-08-25T15:22:12.467Z,3.21
2022-08-25T15:23:44.643Z,3.24
2022-08-25T15:25:16.396Z,3.33
2022-08-25T15:28:22.338Z,3.12
2022-08-25T15:29:54.307Z,3.15
2022-08-25T15:31:26.432Z,3.13
2022-08-25T15:32:58.677Z,3.33
2022-08-25T15:34:30.691Z,3.48
2022-08-25T15:36:02.376Z,3.39
2022-08-25T15:37:34.905Z,3.23
2022-08-25T15:39:06.569Z,3.02
2022-08-25T15:40:38.390Z,3.11
2022-08-25T15:42:10.341Z,3.31
2022-08-25T15:43:43.385Z,3.22
2022-08-25T15:45:16.053Z,3.27
2022-08-25T15:46:50.273Z,3.34
2022-08-25T15:48:22.179Z,3.27
2022-08-25T15:49:53.848Z,2.96
2022-08-25T15:51:26.397Z,3.38
2022-08-25T15:53:03.100Z,3.19
2022-08-25T15:54:35.308Z,3.37
2022-08-25T15:56:07.978Z,3.35
2022-08-25T15:58:38.511Z,3.20
2022-08-25T16:00:21.690Z,3.13
2022-08-25T16:01:53.978Z,3.16
2022-08-25T16:03:25.787Z,3.39
2022-08-25T16:04:58.020Z,3.55
2022-08-25T16:06:29.653Z,3.63
2022-08-25T16:08:01.302Z,3.36
2022-08-25T16:09:34.404Z,3.28
2022-08-25T16:11:06.547Z,3.35
2022-08-25T16:12:39.006Z,3.48
2022-08-25T16:14:10.864Z,3.66
2022-08-25T16:15:47.603Z,3.73
2022-08-25T16:17:25.850Z,3.57
2022-08-25T16:18:57.479Z,3.32
2022-08-25T16:20:34.252Z,3.40
2022-08-25T16:22:06.729Z,3.27
2022-08-25T16:23:40.733Z,3.94
2022-08-25T16:25:14.893Z,3.88
2022-08-25T16:26:49.148Z,3.94
2022-08-25T16:28:30.733Z,3.94
2022-08-25T16:30:02.342Z,3.83
2022-08-25T16:31:36.992Z,3.79
2022-08-25T16:33:08.753Z,3.53
2022-08-25T16:34:46.506Z,3.76
2022-08-25T16:36:19.220Z,3.64
2022-08-25T16:37:50.897Z,3.56
2022-08-25T16:39:23.980Z,3.65
2022-08-25T16:40:55.806Z,3.83
2022-08-25T16:42:27.737Z,3.54
2022-08-25T16:44:00.343Z,3.58
2022-08-25T16:45:53.504Z,3.73
2022-08-25T16:47:27.074Z,3.72
2022-08-25T16:48:58.829Z,3.45
2022-08-25T16:50:36.067Z,3.88
2022-08-25T16:52:09.289Z,3.71
2022-08-25T16:53:47.319Z,3.61
2022-08-25T16:55:21.507Z,3.68
2022-08-25T16:56:55.056Z,3.83
2022-08-25T16:58:33.348Z,3.55
2022-08-25T17:00:05.009Z,3.55
2022-08-25T17:01:37.385Z,3.68
2022-08-25T17:03:09.188Z,3.61
2022-08-25T17:04:40.918Z,3.97
2022-08-25T17:06:14.064Z,3.63
2022-08-25T17:07:56.987Z,3.66
2022-08-25T17:09:28.832Z,3.96
2022-08-25T17:11:05.885Z,4.06
2022-08-25T17:12:43.609Z,3.98
2022-08-25T17:14:15.326Z,4.40
2022-08-25T17:15:52.340Z,5.19
2022-08-25T17:17:24.627Z,4.79
2022-08-25T17:18:58.692Z,4.43
2022-08-25T17:20:35.501Z,4.39
2022-08-25T17:22:07.994Z,4.65
2022-08-25T17:23:40.808Z,4.15
2022-08-25T17:27:04.458Z,4.16
2022-08-25T17:28:37.133Z,5.24
2022-08-25T17:30:09.777Z,6.02
2022-08-25T17:31:41.378Z,5.30
2022-08-25T17:33:13.063Z,5.37
2022-08-25T17:34:44.783Z,4.03
2022-08-25T17:36:17.347Z,3.82
2022-08-25T17:37:50.536Z,4.11
2022-08-25T17:39:27.920Z,4.05
2022-08-25T17:41:00.084Z,3.97
2022-08-25T17:42:31.628Z,4.08
2022-08-25T17:44:03.221Z,4.06
2022-08-25T17:45:34.997Z,3.86
2022-08-25T17:47:06.542Z,3.94
2022-08-25T17:48:39.364Z,4.11
2022-08-25T17:50:15.535Z,4.10
2022-08-25T17:51:53.494Z,3.91
2022-08-25T17:53:25.095Z,4.22
2022-08-25T17:54:58.961Z,4.13
2022-08-25T17:56:30.798Z,4.33
2022-08-25T17:58:02.293Z,4.36
2022-08-25T17:59:33.927Z,4.30
2022-08-25T18:01:18.696Z,4.36
2022-08-25T18:02:50.445Z,4.10
2022-08-25T18:04:21.966Z,4.13
2022-08-25T18:05:53.497Z,4.15
2022-08-25T18:07:25.118Z,4.19
2022-08-25T18:09:00.049Z,4.35
2022-08-25T18:10:38.123Z,4.32
2022-08-25T18:12:09.690Z,4.10
2022-08-25T18:13:43.671Z,4.16
2022-08-25T18:15:26.714Z,4.22
2022-08-25T18:17:00.626Z,4.61
2022-08-25T18:18:32.391Z,4.37
2022-08-25T18:20:27.584Z,4.27
2022-08-25T18:21:59.235Z,4.54
2022-08-25T18:23:30.862Z,4.58
2022-08-25T18:25:07.417Z,4.29
2022-08-25T18:26:55.721Z,4.63
2022-08-25T18:28:27.234Z,4.88
2022-08-25T18:30:00.134Z,4.74
2022-08-25T18:31:31.695Z,4.79
2022-08-25T18:33:03.907Z,4.87
2022-08-25T18:34:36.527Z,4.85
2022-08-25T18:36:09.164Z,4.83
2022-08-25T18:37:40.734Z,5.18
2022-08-25T18:39:13.670Z,4.77
2022-08-25T18:40:45.367Z,4.70
2022-08-25T18:42:16.964Z,4.70
2022-08-25T18:43:49.644Z,4.61
2022-08-25T18:45:22.259Z,4.76
2022-08-25T18:46:54.164Z,4.88
2022-08-25T18:48:26.709Z,5.04
2022-08-25T18:50:02.580Z,4.96
2022-08-25T18:51:35.885Z,4.99
2022-08-25T18:53:12.458Z,5.04
2022-08-25T18:54:57.232Z,4.84
2022-08-25T18:56:29.070Z,4.98
2022-08-25T18:58:00.966Z,4.82
2022-08-25T18:59:32.625Z,5.05
2022-08-25T19:01:04.187Z,5.17
2022-08-25T19:02:36.461Z,4.93
2022-08-25T19:04:08.355Z,5.24
2022-08-25T19:05:49.407Z,5.60
2022-08-25T19:07:29.061Z,5.44
2022-08-25T19:09:01.041Z,5.62
2022-08-25T19:10:32.638Z,5.48
2022-08-25T19:12:04.224Z,5.26
2022-08-25T19:13:41.326Z,5.37
2022-08-25T19:15:12.934Z,5.52
2022-08-25T19:16:44.622Z,6.07
2022-08-25T19:18:16.256Z,5.63
2022-08-25T19:19:49.012Z,5.73
2022-08-25T19:21:22.532Z,5.90
2022-08-25T19:22:59.707Z,5.41
2022-08-25T19:24:36.261Z,5.68
2022-08-25T19:26:08.117Z,5.15
2022-08-25T19:27:46.251Z,5.41
2022-08-25T19:29:17.873Z,5.66
2022-08-25T19:30:50.951Z,6.06
2022-08-25T19:32:24.106Z,5.91
2022-08-25T19:33:56.077Z,5.95
2022-08-25T19:35:31.753Z,5.53
2022-08-25T19:37:04.450Z,5.39
2022-08-25T19:38:36.134Z,5.15
2022-08-25T19:40:07.837Z,5.24
2022-08-25T19:41:40.541Z,5.32
2022-08-25T19:43:12.571Z,4.95
2022-08-25T19:44:44.977Z,5.06
2022-08-25T19:46:17.348Z,5.09
2022-08-25T19:47:51.485Z,5.10
2022-08-25T19:49:25.383Z,5.43
2022-08-25T19:50:57.088Z,5.51
2022-08-25T19:52:28.926Z,5.66
2022-08-25T19:54:06.663Z,5.56
2022-08-25T19:55:48.515Z,5.23
2022-08-25T19:57:28.467Z,5.10
2022-08-25T19:59:14.304Z,5.15
2022-08-25T20:00:49.440Z,5.39
2022-08-25T20:02:22.821Z,4.78
2022-08-25T20:03:54.444Z,4.92
2022-08-25T20:05:28.748Z,4.86
2022-08-25T20:07:00.750Z,4.92
2022-08-25T20:08:32.457Z,4.65
2022-08-25T20:10:04.072Z,4.94
2022-08-25T20:11:35.994Z,5.07
2022-08-25T20:13:08.029Z,5.14
2022-08-25T20:14:39.775Z,5.27
2022-08-25T20:16:11.375Z,4.79
2022-08-25T20:17:42.977Z,4.62
2022-08-25T20:19:16.684Z,4.87
2022-08-25T20:20:48.331Z,4.98
2022-08-25T20:22:24.954Z,4.94
2022-08-25T20:23:58.385Z,4.69
2022-08-25T20:25:35.999Z,4.93
2022-08-25T20:27:08.675Z,5.05
2022-08-25T20:28:42.216Z,4.64
2022-08-25T20:30:14.084Z,4.68
2022-08-25T20:31:48.149Z,4.86
2022-08-25T20:33:23.120Z,5.10
2022-08-25T20:34:55.821Z,4.80
2022-08-25T20:36:27.626Z,4.69
2022-08-25T20:38:04.907Z,4.87
2022-08-25T20:39:36.752Z,4.45
2022-08-25T20:41:08.555Z,4.74
2022-08-25T20:42:40.658Z,4.68
2022-08-25T20:44:42.905Z,4.68
2022-08-25T20:46:18.400Z,4.45
2022-08-25T20:48:01.211Z,4.49
2022-08-25T20:49:43.734Z,4.68
2022-08-25T20:51:34.293Z,4.83
2022-08-25T20:53:13.713Z,4.47
2022-08-25T20:54:46.983Z,4.86
2022-08-25T20:56:21.220Z,5.19
2022-08-25T21:00:11.118Z,5.19
2022-08-25T21:01:42.887Z,5.17
2022-08-25T21:03:15.068Z,4.94
2022-08-25T21:04:49.951Z,5.18
2022-08-25T21:06:28.248Z,5.17
2022-08-25T21:08:00.250Z,5.11
2022-08-25T21:10:06.202Z,5.44
2022-08-25T21:12:23.973Z,5.35
2022-08-25T21:13:55.421Z,5.34
2022-08-25T21:15:38.998Z,5.49
2022-08-25T21:17:10.679Z,5.51
2022-08-25T21:18:48.150Z,5.62
2022-08-25T21:20:20.643Z,5.88
2022-08-25T21:21:53.023Z,5.39
2022-08-25T21:23:24.994Z,5.45